Terminal Aerodrome Forecast
Issued by NWS Cleveland, OH

Home | Current Version | Previous Version | Text Only | Print | Product List | Glossary On
Versions: 1 2 3 4 5 6 7 8 9 10 11 12 13 14 15 16 17 18 19 20 21 22 23 24 25 26 27 28 29 30 31 32 33 34 35 36 37 38
279
FTUS41 KCLE 251429 AAB
TAFCLE
TAF AMD
KCLE 251429Z 2514/2618 25018G32KT P6SM SCT025 OVC250
     FM251800 25015G28KT P6SM BKN250
     FM252200 25012G22KT P6SM SCT250
     FM260400 25008KT P6SM SKC=

USA.gov is the U.S. government's official web portal to all federal, state and local government web resources and services.